sensor_id;sensor_type;location;lat;lon;timestamp;pressure;altitude;pressure_sealevel;temperature;humidity
46379;BME280;32084;42.254;22.744;2023-02-18T00:00:59;96071.44;;;0.78;66.30
46379;BME280;32084;42.254;22.744;2023-02-18T00:03:26;96068.84;;;0.61;65.72
46379;BME280;32084;42.254;22.744;2023-02-18T00:05:52;96077.94;;;0.71;65.90
46379;BME280;32084;42.254;22.744;2023-02-18T00:08:19;96061.84;;;0.77;65.70
46379;BME280;32084;42.254;22.744;2023-02-18T00:10:45;96078.59;;;0.59;65.75
46379;BME280;32084;42.254;22.744;2023-02-18T00:13:11;96062.09;;;0.55;67.11
46379;BME280;32084;42.254;22.744;2023-02-18T00:15:37;96064.28;;;0.65;66.82
46379;BME280;32084;42.254;22.744;2023-02-18T00:18:04;96063.19;;;0.69;66.49
46379;BME280;32084;42.254;22.744;2023-02-18T00:20:30;96057.25;;;0.81;65.61
46379;BME280;32084;42.254;22.744;2023-02-18T00:22:58;96068.91;;;0.60;66.67
46379;BME280;32084;42.254;22.744;2023-02-18T00:25:24;96058.31;;;0.61;66.07
46379;BME280;32084;42.254;22.744;2023-02-18T00:27:50;96055.44;;;0.66;65.75
46379;BME280;32084;42.254;22.744;2023-02-18T00:30:16;96043.81;;;0.52;67.16
46379;BME280;32084;42.254;22.744;2023-02-18T00:32:42;96052.09;;;0.62;66.78
46379;BME280;32084;42.254;22.744;2023-02-18T00:35:08;96042.03;;;0.53;67.38
46379;BME280;32084;42.254;22.744;2023-02-18T00:37:34;96034.59;;;0.09;67.50
46379;BME280;32084;42.254;22.744;2023-02-18T00:40:00;96035.56;;;0.25;67.36
46379;BME280;32084;42.254;22.744;2023-02-18T00:42:26;96034.22;;;0.34;68.03
46379;BME280;32084;42.254;22.744;2023-02-18T00:44:52;96029.59;;;0.22;67.24
46379;BME280;32084;42.254;22.744;2023-02-18T00:47:18;96021.38;;;0.28;67.31
46379;BME280;32084;42.254;22.744;2023-02-18T00:49:45;96022.28;;;0.09;68.50
46379;BME280;32084;42.254;22.744;2023-02-18T00:52:11;96020.75;;;0.23;67.77
46379;BME280;32084;42.254;22.744;2023-02-18T00:54:37;96019.06;;;0.39;68.03
46379;BME280;32084;42.254;22.744;2023-02-18T00:57:02;96008.22;;;0.10;66.96
46379;BME280;32084;42.254;22.744;2023-02-18T00:59:29;96005.28;;;-0.01;68.63
46379;BME280;32084;42.254;22.744;2023-02-18T01:01:54;95995.69;;;-0.02;69.63
46379;BME280;32084;42.254;22.744;2023-02-18T01:04:20;95996.94;;;-0.09;69.36
46379;BME280;32084;42.254;22.744;2023-02-18T01:06:47;95997.00;;;0.07;69.61
46379;BME280;32084;42.254;22.744;2023-02-18T01:09:13;96000.88;;;-0.01;68.91
46379;BME280;32084;42.254;22.744;2023-02-18T01:11:39;95997.63;;;-0.06;68.94
46379;BME280;32084;42.254;22.744;2023-02-18T01:14:05;95999.72;;;0.05;68.32
46379;BME280;32084;42.254;22.744;2023-02-18T01:16:31;96002.41;;;0.04;68.73
46379;BME280;32084;42.254;22.744;2023-02-18T01:18:57;95989.66;;;-0.04;68.60
46379;BME280;32084;42.254;22.744;2023-02-18T01:21:23;95996.16;;;-0.11;68.19
46379;BME280;32084;42.254;22.744;2023-02-18T01:23:48;95994.91;;;-0.04;69.37
46379;BME280;32084;42.254;22.744;2023-02-18T01:26:14;95980.13;;;-0.24;68.47
46379;BME280;32084;42.254;22.744;2023-02-18T01:28:40;95987.75;;;-0.73;69.17
46379;BME280;32084;42.254;22.744;2023-02-18T01:31:07;95992.19;;;-0.56;70.06
46379;BME280;32084;42.254;22.744;2023-02-18T01:33:34;95988.34;;;-0.49;70.09
46379;BME280;32084;42.254;22.744;2023-02-18T01:36:00;95983.25;;;-0.52;69.68
46379;BME280;32084;42.254;22.744;2023-02-18T01:38:26;95996.53;;;-0.38;69.76
46379;BME280;32084;42.254;22.744;2023-02-18T01:40:52;95992.78;;;-0.32;70.17
46379;BME280;32084;42.254;22.744;2023-02-18T01:43:18;96001.59;;;-0.33;70.17
46379;BME280;32084;42.254;22.744;2023-02-18T01:51:09;96000.09;;;-0.75;70.68
46379;BME280;32084;42.254;22.744;2023-02-18T01:53:38;95997.31;;;-0.91;72.03
46379;BME280;32084;42.254;22.744;2023-02-18T01:56:05;95998.22;;;-0.54;70.67
46379;BME280;32084;42.254;22.744;2023-02-18T01:58:33;95991.09;;;-0.33;69.96
46379;BME280;32084;42.254;22.744;2023-02-18T02:00:59;95998.28;;;-0.20;69.84
46379;BME280;32084;42.254;22.744;2023-02-18T02:03:25;96000.59;;;-0.13;70.04
46379;BME280;32084;42.254;22.744;2023-02-18T02:05:51;96008.13;;;-0.42;69.17
46379;BME280;32084;42.254;22.744;2023-02-18T02:08:17;96008.44;;;-0.48;70.32
46379;BME280;32084;42.254;22.744;2023-02-18T02:10:58;96002.81;;;-0.41;69.96
46379;BME280;32084;42.254;22.744;2023-02-18T02:32:08;96000.56;;;-0.48;70.21
46379;BME280;32084;42.254;22.744;2023-02-18T02:34:51;95996.88;;;-0.63;70.74
46379;BME280;32084;42.254;22.744;2023-02-18T02:40:16;96002.19;;;-0.84;71.80
46379;BME280;32084;42.254;22.744;2023-02-18T02:42:57;96013.22;;;-0.75;71.61
46379;BME280;32084;42.254;22.744;2023-02-18T02:53:26;96012.78;;;-0.85;71.81
46379;BME280;32084;42.254;22.744;2023-02-18T02:55:52;96021.81;;;-0.91;71.48
46379;BME280;32084;42.254;22.744;2023-02-18T02:58:21;96024.13;;;-1.04;71.61
46379;BME280;32084;42.254;22.744;2023-02-18T03:03:36;96012.88;;;-1.26;72.67
46379;BME280;32084;42.254;22.744;2023-02-18T03:08:49;96012.28;;;-0.93;71.63
46379;BME280;32084;42.254;22.744;2023-02-18T03:11:17;96004.34;;;-0.92;71.98
46379;BME280;32084;42.254;22.744;2023-02-18T03:16:26;95996.69;;;-0.96;71.19
46379;BME280;32084;42.254;22.744;2023-02-18T03:24:01;96006.28;;;-1.16;72.00
46379;BME280;32084;42.254;22.744;2023-02-18T03:26:29;96007.59;;;-1.06;72.07
46379;BME280;32084;42.254;22.744;2023-02-18T03:28:57;95999.28;;;-1.34;71.79
46379;BME280;32084;42.254;22.744;2023-02-18T03:31:25;96008.16;;;-1.39;72.97
46379;BME280;32084;42.254;22.744;2023-02-18T03:33:56;96016.06;;;-1.20;72.51
46379;BME280;32084;42.254;22.744;2023-02-18T03:36:24;96007.19;;;-1.36;72.58
46379;BME280;32084;42.254;22.744;2023-02-18T03:38:55;96024.44;;;-1.71;73.34
46379;BME280;32084;42.254;22.744;2023-02-18T03:41:23;96025.63;;;-1.58;74.22
46379;BME280;32084;42.254;22.744;2023-02-18T03:43:50;96029.13;;;-1.18;72.75
46379;BME280;32084;42.254;22.744;2023-02-18T03:46:16;96039.59;;;-0.98;72.17
46379;BME280;32084;42.254;22.744;2023-02-18T03:48:43;96036.53;;;-1.07;71.79
46379;BME280;32084;42.254;22.744;2023-02-18T03:51:09;96026.34;;;-1.34;72.75
46379;BME280;32084;42.254;22.744;2023-02-18T03:53:35;96035.38;;;-1.21;72.58
46379;BME280;32084;42.254;22.744;2023-02-18T03:56:01;96039.28;;;-1.50;73.01
46379;BME280;32084;42.254;22.744;2023-02-18T03:58:27;96057.16;;;-1.39;73.17
46379;BME280;32084;42.254;22.744;2023-02-18T04:00:53;96055.72;;;-1.46;73.80
46379;BME280;32084;42.254;22.744;2023-02-18T04:03:19;96059.84;;;-1.41;73.44
46379;BME280;32084;42.254;22.744;2023-02-18T04:05:45;96055.88;;;-1.29;73.82
46379;BME280;32084;42.254;22.744;2023-02-18T04:08:11;96063.06;;;-1.13;72.83
46379;BME280;32084;42.254;22.744;2023-02-18T04:10:37;96058.00;;;-1.18;72.23
46379;BME280;32084;42.254;22.744;2023-02-18T04:13:03;96058.69;;;-1.33;73.06
46379;BME280;32084;42.254;22.744;2023-02-18T04:15:29;96065.59;;;-1.51;72.36
46379;BME280;32084;42.254;22.744;2023-02-18T04:17:55;96062.03;;;-1.50;73.24
46379;BME280;32084;42.254;22.744;2023-02-18T04:20:21;96072.00;;;-1.59;74.43
46379;BME280;32084;42.254;22.744;2023-02-18T04:22:47;96075.47;;;-1.38;73.54
46379;BME280;32084;42.254;22.744;2023-02-18T04:25:13;96070.75;;;-1.29;73.27
46379;BME280;32084;42.254;22.744;2023-02-18T04:27:39;96067.72;;;-1.41;72.89
46379;BME280;32084;42.254;22.744;2023-02-18T04:30:06;96064.84;;;-1.34;73.18
46379;BME280;32084;42.254;22.744;2023-02-18T04:32:32;96072.63;;;-1.33;73.19
46379;BME280;32084;42.254;22.744;2023-02-18T04:34:58;96072.56;;;-1.31;72.92
46379;BME280;32084;42.254;22.744;2023-02-18T04:37:24;96070.56;;;-1.25;72.48
46379;BME280;32084;42.254;22.744;2023-02-18T04:39:50;96064.97;;;-1.38;72.96
46379;BME280;32084;42.254;22.744;2023-02-18T04:42:16;96054.09;;;-1.28;73.07
46379;BME280;32084;42.254;22.744;2023-02-18T04:44:42;96046.59;;;-1.17;73.09
46379;BME280;32084;42.254;22.744;2023-02-18T04:47:08;96061.28;;;-1.54;72.46
46379;BME280;32084;42.254;22.744;2023-02-18T04:49:34;96059.22;;;-1.66;74.24
46379;BME280;32084;42.254;22.744;2023-02-18T04:52:00;96054.81;;;-1.66;75.14
46379;BME280;32084;42.254;22.744;2023-02-18T04:54:26;96057.03;;;-1.36;74.21
46379;BME280;32084;42.254;22.744;2023-02-18T04:56:52;96057.63;;;-1.29;73.96
46379;BME280;32084;42.254;22.744;2023-02-18T04:59:18;96046.06;;;-1.25;73.66
46379;BME280;32084;42.254;22.744;2023-02-18T05:01:44;96054.41;;;-1.15;73.62
46379;BME280;32084;42.254;22.744;2023-02-18T05:04:10;96058.56;;;-1.30;73.11
46379;BME280;32084;42.254;22.744;2023-02-18T05:06:36;96064.38;;;-1.44;73.65
46379;BME280;32084;42.254;22.744;2023-02-18T05:09:05;96059.28;;;-1.47;73.63
46379;BME280;32084;42.254;22.744;2023-02-18T05:11:31;96067.78;;;-1.83;73.50
46379;BME280;32084;42.254;22.744;2023-02-18T05:13:57;96063.53;;;-1.65;73.94
46379;BME280;32084;42.254;22.744;2023-02-18T05:16:23;96056.06;;;-1.74;74.15
46379;BME280;32084;42.254;22.744;2023-02-18T05:18:49;96055.75;;;-1.67;74.31
46379;BME280;32084;42.254;22.744;2023-02-18T05:21:15;96057.78;;;-1.53;74.55
46379;BME280;32084;42.254;22.744;2023-02-18T05:23:41;96051.75;;;-1.55;73.95
46379;BME280;32084;42.254;22.744;2023-02-18T05:26:07;96041.25;;;-1.55;73.76
46379;BME280;32084;42.254;22.744;2023-02-18T05:28:33;96048.91;;;-1.71;74.98
46379;BME280;32084;42.254;22.744;2023-02-18T05:30:59;96036.97;;;-1.58;74.94
46379;BME280;32084;42.254;22.744;2023-02-18T05:33:25;96042.22;;;-1.37;75.25
46379;BME280;32084;42.254;22.744;2023-02-18T05:35:51;96042.53;;;-1.24;74.75
46379;BME280;32084;42.254;22.744;2023-02-18T05:38:17;96032.94;;;-1.25;74.09
46379;BME280;32084;42.254;22.744;2023-02-18T05:40:43;96043.25;;;-1.21;73.36
46379;BME280;32084;42.254;22.744;2023-02-18T05:43:09;96060.56;;;-1.16;73.93
46379;BME280;32084;42.254;22.744;2023-02-18T05:45:35;96066.19;;;-1.05;73.58
46379;BME280;32084;42.254;22.744;2023-02-18T05:48:01;96064.97;;;-1.38;72.86
46379;BME280;32084;42.254;22.744;2023-02-18T05:50:28;96082.28;;;-1.33;73.57
46379;BME280;32084;42.254;22.744;2023-02-18T05:52:54;96082.63;;;-1.41;73.57
46379;BME280;32084;42.254;22.744;2023-02-18T05:55:20;96085.13;;;-1.17;73.41
46379;BME280;32084;42.254;22.744;2023-02-18T05:57:46;96083.09;;;-0.92;72.82
46379;BME280;32084;42.254;22.744;2023-02-18T06:00:12;96070.19;;;-0.96;73.05
46379;BME280;32084;42.254;22.744;2023-02-18T06:02:39;96078.91;;;-0.96;73.65
46379;BME280;32084;42.254;22.744;2023-02-18T06:05:05;96067.50;;;-0.57;73.05
46379;BME280;32084;42.254;22.744;2023-02-18T06:07:31;96066.53;;;-0.35;72.13
46379;BME280;32084;42.254;22.744;2023-02-18T06:09:57;96074.03;;;-0.28;72.78
46379;BME280;32084;42.254;22.744;2023-02-18T06:12:23;96072.94;;;-0.05;71.96
46379;BME280;32084;42.254;22.744;2023-02-18T06:14:49;96075.50;;;-0.03;71.96
46379;BME280;32084;42.254;22.744;2023-02-18T06:17:16;96072.53;;;0.22;71.42
46379;BME280;32084;42.254;22.744;2023-02-18T06:19:43;96063.56;;;0.61;69.93
46379;BME280;32084;42.254;22.744;2023-02-18T06:22:10;96072.28;;;1.46;67.36
46379;BME280;32084;42.254;22.744;2023-02-18T06:24:36;96077.88;;;3.10;61.54
46379;BME280;32084;42.254;22.744;2023-02-18T06:27:02;96086.09;;;3.20;60.19
46379;BME280;32084;42.254;22.744;2023-02-18T06:29:28;96086.31;;;2.72;61.25
46379;BME280;32084;42.254;22.744;2023-02-18T06:31:56;96093.38;;;2.25;63.11
46379;BME280;32084;42.254;22.744;2023-02-18T06:34:23;96094.53;;;2.05;65.01
46379;BME280;32084;42.254;22.744;2023-02-18T06:36:49;96088.09;;;2.41;63.13
46379;BME280;32084;42.254;22.744;2023-02-18T06:39:15;96093.91;;;2.92;61.37
46379;BME280;32084;42.254;22.744;2023-02-18T06:41:41;96080.06;;;2.43;63.36
46379;BME280;32084;42.254;22.744;2023-02-18T06:44:07;96074.09;;;2.09;64.49
46379;BME280;32084;42.254;22.744;2023-02-18T06:46:33;96070.38;;;1.81;67.18
46379;BME280;32084;42.254;22.744;2023-02-18T06:48:59;96078.44;;;1.62;67.72
46379;BME280;32084;42.254;22.744;2023-02-18T06:51:25;96086.34;;;2.26;66.08
46379;BME280;32084;42.254;22.744;2023-02-18T06:53:51;96074.13;;;3.28;62.74
46379;BME280;32084;42.254;22.744;2023-02-18T06:56:17;96072.41;;;3.56;61.14
46379;BME280;32084;42.254;22.744;2023-02-18T06:58:43;96056.75;;;3.53;61.92
46379;BME280;32084;42.254;22.744;2023-02-18T07:01:09;96057.78;;;4.06;60.59
46379;BME280;32084;42.254;22.744;2023-02-18T07:03:35;96066.72;;;4.98;57.35
46379;BME280;32084;42.254;22.744;2023-02-18T07:06:01;96064.19;;;4.57;58.02
46379;BME280;32084;42.254;22.744;2023-02-18T07:08:27;96074.22;;;3.56;60.69
46379;BME280;32084;42.254;22.744;2023-02-18T07:10:55;96080.00;;;2.74;63.57
46379;BME280;32084;42.254;22.744;2023-02-18T07:13:21;96086.59;;;2.21;65.89
46379;BME280;32084;42.254;22.744;2023-02-18T07:15:47;96086.59;;;2.21;65.89
46379;BME280;32084;42.254;22.744;2023-02-18T07:18:13;96093.03;;;2.47;64.78
46379;BME280;32084;42.254;22.744;2023-02-18T07:20:39;96090.53;;;2.44;65.09
46379;BME280;32084;42.254;22.744;2023-02-18T07:23:05;96090.00;;;2.39;64.64
46379;BME280;32084;42.254;22.744;2023-02-18T07:25:31;96074.69;;;2.30;65.90
46379;BME280;32084;42.254;22.744;2023-02-18T07:27:57;96077.31;;;2.30;65.95
46379;BME280;32084;42.254;22.744;2023-02-18T07:30:23;96080.19;;;2.41;65.99
46379;BME280;32084;42.254;22.744;2023-02-18T07:32:49;96069.97;;;2.65;65.50
46379;BME280;32084;42.254;22.744;2023-02-18T07:35:15;96068.88;;;2.69;65.77
46379;BME280;32084;42.254;22.744;2023-02-18T07:37:45;96086.03;;;2.77;66.67
46379;BME280;32084;42.254;22.744;2023-02-18T07:40:12;96071.06;;;2.77;65.87
46379;BME280;32084;42.254;22.744;2023-02-18T07:42:38;96060.28;;;2.80;65.27
46379;BME280;32084;42.254;22.744;2023-02-18T07:45:04;96055.75;;;2.82;65.58
46379;BME280;32084;42.254;22.744;2023-02-18T07:47:30;96064.84;;;3.07;65.26
46379;BME280;32084;42.254;22.744;2023-02-18T07:49:56;96061.28;;;3.08;65.49
46379;BME280;32084;42.254;22.744;2023-02-18T07:52:22;96056.56;;;3.27;64.72
46379;BME280;32084;42.254;22.744;2023-02-18T07:54:48;96064.59;;;3.40;64.82
46379;BME280;32084;42.254;22.744;2023-02-18T07:57:14;96074.78;;;3.46;65.75
46379;BME280;32084;42.254;22.744;2023-02-18T07:59:40;96060.50;;;3.78;64.02
46379;BME280;32084;42.254;22.744;2023-02-18T08:02:07;96060.06;;;3.98;63.87
46379;BME280;32084;42.254;22.744;2023-02-18T08:04:36;96065.81;;;4.32;63.21
46379;BME280;32084;42.254;22.744;2023-02-18T08:07:02;96061.72;;;4.81;62.56
46379;BME280;32084;42.254;22.744;2023-02-18T08:09:28;96066.63;;;5.13;60.65
46379;BME280;32084;42.254;22.744;2023-02-18T08:11:54;96069.47;;;4.97;60.54
46379;BME280;32084;42.254;22.744;2023-02-18T08:14:20;96063.00;;;4.88;61.16
46379;BME280;32084;42.254;22.744;2023-02-18T08:16:46;96058.34;;;4.92;60.77
46379;BME280;32084;42.254;22.744;2023-02-18T08:19:12;96063.59;;;4.66;61.21
46379;BME280;32084;42.254;22.744;2023-02-18T08:21:38;96058.00;;;4.71;61.60
46379;BME280;32084;42.254;22.744;2023-02-18T08:24:04;96059.03;;;4.68;61.24
46379;BME280;32084;42.254;22.744;2023-02-18T08:26:32;96053.28;;;4.48;61.88
46379;BME280;32084;42.254;22.744;2023-02-18T08:28:58;96058.16;;;4.55;62.23
46379;BME280;32084;42.254;22.744;2023-02-18T08:31:25;96060.88;;;4.80;61.53
46379;BME280;32084;42.254;22.744;2023-02-18T08:33:53;96043.28;;;4.92;61.45
46379;BME280;32084;42.254;22.744;2023-02-18T08:36:20;96050.63;;;5.14;60.77
46379;BME280;32084;42.254;22.744;2023-02-18T08:38:46;96058.66;;;5.00;60.79
46379;BME280;32084;42.254;22.744;2023-02-18T08:41:12;96051.75;;;5.10;60.26
46379;BME280;32084;42.254;22.744;2023-02-18T08:43:39;96062.13;;;4.87;61.33
46379;BME280;32084;42.254;22.744;2023-02-18T08:46:05;96066.84;;;5.35;60.12
46379;BME280;32084;42.254;22.744;2023-02-18T08:48:32;96063.78;;;6.04;57.67
46379;BME280;32084;42.254;22.744;2023-02-18T08:50:58;96064.13;;;6.23;56.31
46379;BME280;32084;42.254;22.744;2023-02-18T08:53:24;96066.03;;;6.58;55.54
46379;BME280;32084;42.254;22.744;2023-02-18T08:55:50;96055.59;;;6.79;54.37
46379;BME280;32084;42.254;22.744;2023-02-18T08:58:16;96063.56;;;7.49;52.29
46379;BME280;32084;42.254;22.744;2023-02-18T09:00:43;96061.41;;;7.99;51.37
46379;BME280;32084;42.254;22.744;2023-02-18T09:03:12;96044.34;;;7.90;52.54
46379;BME280;32084;42.254;22.744;2023-02-18T09:05:39;96052.47;;;8.44;51.04
46379;BME280;32084;42.254;22.744;2023-02-18T09:08:05;96053.13;;;8.68;50.22
46379;BME280;32084;42.254;22.744;2023-02-18T09:10:31;96053.38;;;8.97;49.48
46379;BME280;32084;42.254;22.744;2023-02-18T09:12:57;96054.63;;;9.14;48.02
46379;BME280;32084;42.254;22.744;2023-02-18T09:15:23;96053.38;;;9.70;47.51
46379;BME280;32084;42.254;22.744;2023-02-18T09:17:49;96048.13;;;10.00;46.28
46379;BME280;32084;42.254;22.744;2023-02-18T09:20:15;96041.34;;;10.26;46.36
46379;BME280;32084;42.254;22.744;2023-02-18T09:22:41;96042.81;;;10.50;45.05
46379;BME280;32084;42.254;22.744;2023-02-18T09:25:07;96051.53;;;10.62;44.68
46379;BME280;32084;42.254;22.744;2023-02-18T09:27:33;96039.69;;;10.35;44.84
46379;BME280;32084;42.254;22.744;2023-02-18T09:29:59;96037.63;;;10.78;44.11
46379;BME280;32084;42.254;22.744;2023-02-18T09:32:25;96030.53;;;11.25;43.37
46379;BME280;32084;42.254;22.744;2023-02-18T09:34:51;96020.81;;;11.24;43.21
46379;BME280;32084;42.254;22.744;2023-02-18T09:37:18;96014.16;;;11.28;43.33
46379;BME280;32084;42.254;22.744;2023-02-18T09:39:44;96000.22;;;11.25;43.79
46379;BME280;32084;42.254;22.744;2023-02-18T09:42:11;96009.50;;;11.50;42.78
46379;BME280;32084;42.254;22.744;2023-02-18T09:44:40;96001.88;;;11.83;43.08
46379;BME280;32084;42.254;22.744;2023-02-18T09:49:37;96006.53;;;12.18;41.91
46379;BME280;32084;42.254;22.744;2023-02-18T09:52:13;96003.44;;;12.13;42.27
46379;BME280;32084;42.254;22.744;2023-02-18T09:54:40;96005.44;;;12.57;41.32
46379;BME280;32084;42.254;22.744;2023-02-18T09:57:10;96002.34;;;12.34;41.76
46379;BME280;32084;42.254;22.744;2023-02-18T09:59:40;96009.81;;;12.58;41.15
46379;BME280;32084;42.254;22.744;2023-02-18T10:02:08;96004.50;;;12.66;40.58
46379;BME280;32084;42.254;22.744;2023-02-18T10:04:36;96009.97;;;12.56;41.60
46379;BME280;32084;42.254;22.744;2023-02-18T10:07:05;96006.59;;;12.54;41.19
46379;BME280;32084;42.254;22.744;2023-02-18T10:09:35;95999.22;;;12.56;41.23
46379;BME280;32084;42.254;22.744;2023-02-18T10:12:19;95991.19;;;12.56;40.35
46379;BME280;32084;42.254;22.744;2023-02-18T10:14:53;95988.75;;;12.17;40.86
46379;BME280;32084;42.254;22.744;2023-02-18T10:17:20;95996.16;;;12.51;40.91
46379;BME280;32084;42.254;22.744;2023-02-18T10:19:48;95984.75;;;12.03;40.69
46379;BME280;32084;42.254;22.744;2023-02-18T10:22:15;95989.81;;;12.52;40.61
46379;BME280;32084;42.254;22.744;2023-02-18T10:25:03;95985.63;;;12.40;39.55
46379;BME280;32084;42.254;22.744;2023-02-18T10:27:29;95962.47;;;12.03;40.41
46379;BME280;32084;42.254;22.744;2023-02-18T10:29:59;95950.66;;;11.96;40.05
46379;BME280;32084;42.254;22.744;2023-02-18T10:32:30;95956.28;;;12.20;40.88
46379;BME280;32084;42.254;22.744;2023-02-18T10:40:08;95935.19;;;12.25;40.75
46379;BME280;32084;42.254;22.744;2023-02-18T10:48:14;95906.56;;;12.08;40.73
46379;BME280;32084;42.254;22.744;2023-02-18T10:50:43;95911.53;;;12.21;40.86
46379;BME280;32084;42.254;22.744;2023-02-18T10:53:52;95921.78;;;12.25;41.17
46379;BME280;32084;42.254;22.744;2023-02-18T10:55:59;95927.22;;;12.16;40.58
46379;BME280;32084;42.254;22.744;2023-02-18T10:58:30;95923.75;;;12.33;40.93
46379;BME280;32084;42.254;22.744;2023-02-18T11:00:58;95921.91;;;12.96;39.35
46379;BME280;32084;42.254;22.744;2023-02-18T11:03:37;95910.72;;;13.61;38.82
46379;BME280;32084;42.254;22.744;2023-02-18T11:06:05;95909.13;;;13.84;38.00
46379;BME280;32084;42.254;22.744;2023-02-18T11:08:41;95909.97;;;13.51;38.20
46379;BME280;32084;42.254;22.744;2023-02-18T11:11:11;95896.22;;;13.45;39.09
46379;BME280;32084;42.254;22.744;2023-02-18T11:13:39;95894.72;;;13.25;38.40
46379;BME280;32084;42.254;22.744;2023-02-18T11:16:06;95883.81;;;12.92;39.05
46379;BME280;32084;42.254;22.744;2023-02-18T11:18:41;95882.41;;;12.88;39.47
46379;BME280;32084;42.254;22.744;2023-02-18T11:21:19;95872.34;;;13.16;39.14
46379;BME280;32084;42.254;22.744;2023-02-18T11:23:47;95870.94;;;13.04;39.49
46379;BME280;32084;42.254;22.744;2023-02-18T11:26:14;95868.81;;;13.16;38.96
46379;BME280;32084;42.254;22.744;2023-02-18T11:28:41;95873.81;;;13.11;39.04
46379;BME280;32084;42.254;22.744;2023-02-18T11:31:08;95869.13;;;13.13;38.46
46379;BME280;32084;42.254;22.744;2023-02-18T11:36:03;95869.59;;;13.60;38.14
46379;BME280;32084;42.254;22.744;2023-02-18T11:38:34;95866.91;;;13.69;37.83
46379;BME280;32084;42.254;22.744;2023-02-18T11:41:09;95874.16;;;13.76;36.69
46379;BME280;32084;42.254;22.744;2023-02-18T11:43:35;95857.75;;;13.96;37.31
46379;BME280;32084;42.254;22.744;2023-02-18T11:48:33;95857.78;;;14.12;37.02
46379;BME280;32084;42.254;22.744;2023-02-18T11:51:01;95859.13;;;14.24;36.23
46379;BME280;32084;42.254;22.744;2023-02-18T11:53:29;95847.88;;;14.29;36.56
46379;BME280;32084;42.254;22.744;2023-02-18T11:55:56;95849.03;;;14.51;35.90
46379;BME280;32084;42.254;22.744;2023-02-18T11:58:23;95847.38;;;14.83;36.09
46379;BME280;32084;42.254;22.744;2023-02-18T12:00:50;95845.38;;;14.93;35.95
46379;BME280;32084;42.254;22.744;2023-02-18T12:06:03;95827.03;;;14.64;36.43
46379;BME280;32084;42.254;22.744;2023-02-18T12:08:31;95814.41;;;14.56;36.24
46379;BME280;32084;42.254;22.744;2023-02-18T12:11:01;95816.63;;;14.61;35.92
46379;BME280;32084;42.254;22.744;2023-02-18T12:13:49;95806.19;;;14.66;36.05
46379;BME280;32084;42.254;22.744;2023-02-18T12:18:53;95796.22;;;14.83;36.34
46379;BME280;32084;42.254;22.744;2023-02-18T12:24:41;95801.84;;;15.21;35.59
46379;BME280;32084;42.254;22.744;2023-02-18T12:32:29;95787.00;;;15.33;35.60
46379;BME280;32084;42.254;22.744;2023-02-18T12:47:51;95765.81;;;15.22;35.29
46379;BME280;32084;42.254;22.744;2023-02-18T12:50:27;95766.00;;;15.20;35.01
46379;BME280;32084;42.254;22.744;2023-02-18T13:13:13;95734.41;;;15.69;35.03
46379;BME280;32084;42.254;22.744;2023-02-18T13:15:49;95726.59;;;15.82;34.29
46379;BME280;32084;42.254;22.744;2023-02-18T13:18:30;95734.47;;;15.92;33.70
46379;BME280;32084;42.254;22.744;2023-02-18T13:21:00;95741.16;;;15.96;34.19
46379;BME280;32084;42.254;22.744;2023-02-18T13:23:29;95737.63;;;15.95;34.50
46379;BME280;32084;42.254;22.744;2023-02-18T13:25:58;95749.75;;;15.99;34.70
46379;BME280;32084;42.254;22.744;2023-02-18T13:36:08;95740.66;;;15.69;34.72
46379;BME280;32084;42.254;22.744;2023-02-18T13:41:12;95737.94;;;15.69;34.95
46379;BME280;32084;42.254;22.744;2023-02-18T13:43:38;95729.84;;;15.77;34.79
46379;BME280;32084;42.254;22.744;2023-02-18T13:46:09;95734.16;;;15.87;35.31
46379;BME280;32084;42.254;22.744;2023-02-18T13:48:42;95734.09;;;15.95;34.39
46379;BME280;32084;42.254;22.744;2023-02-18T13:51:13;95735.47;;;15.91;34.62
46379;BME280;32084;42.254;22.744;2023-02-18T13:53:41;95735.63;;;15.89;34.46
46379;BME280;32084;42.254;22.744;2023-02-18T13:56:08;95725.09;;;15.79;34.74
46379;BME280;32084;42.254;22.744;2023-02-18T14:08:39;95711.09;;;15.84;34.79
46379;BME280;32084;42.254;22.744;2023-02-18T14:13:38;95714.34;;;15.71;35.21
46379;BME280;32084;42.254;22.744;2023-02-18T14:16:06;95704.09;;;15.67;35.44
46379;BME280;32084;42.254;22.744;2023-02-18T14:18:53;95711.34;;;15.66;35.24
46379;BME280;32084;42.254;22.744;2023-02-18T14:21:20;95702.25;;;15.67;35.09
46379;BME280;32084;42.254;22.744;2023-02-18T14:26:49;95702.44;;;15.66;34.97
46379;BME280;32084;42.254;22.744;2023-02-18T14:29:10;95695.06;;;15.59;34.73
46379;BME280;32084;42.254;22.744;2023-02-18T14:31:42;95701.28;;;15.60;35.22
46379;BME280;32084;42.254;22.744;2023-02-18T14:50:29;95705.50;;;15.31;35.07
46379;BME280;32084;42.254;22.744;2023-02-18T14:52:56;95711.94;;;15.22;35.25
46379;BME280;32084;42.254;22.744;2023-02-18T14:55:29;95694.09;;;15.21;35.14
46379;BME280;32084;42.254;22.744;2023-02-18T14:58:00;95696.97;;;15.19;35.36
46379;BME280;32084;42.254;22.744;2023-02-18T15:00:28;95700.84;;;15.17;36.43
46379;BME280;32084;42.254;22.744;2023-02-18T15:02:57;95704.75;;;15.06;36.57
46379;BME280;32084;42.254;22.744;2023-02-18T15:05:25;95697.28;;;14.93;36.84
46379;BME280;32084;42.254;22.744;2023-02-18T15:08:02;95701.19;;;14.82;37.17
46379;BME280;32084;42.254;22.744;2023-02-18T15:11:14;95693.97;;;14.75;36.61
46379;BME280;32084;42.254;22.744;2023-02-18T15:15:49;95694.97;;;14.82;35.70
46379;BME280;32084;42.254;22.744;2023-02-18T15:18:20;95689.09;;;14.78;35.69
46379;BME280;32084;42.254;22.744;2023-02-18T15:20:48;95690.94;;;14.70;35.45
46379;BME280;32084;42.254;22.744;2023-02-18T15:23:14;95695.00;;;14.66;36.01
46379;BME280;32084;42.254;22.744;2023-02-18T15:25:46;95699.06;;;14.61;35.52
46379;BME280;32084;42.254;22.744;2023-02-18T15:28:24;95693.84;;;14.60;35.07
46379;BME280;32084;42.254;22.744;2023-02-18T15:30:50;95694.88;;;14.59;35.29
46379;BME280;32084;42.254;22.744;2023-02-18T15:33:17;95688.97;;;14.55;35.16